Kellerville, Illinois
Current Conditions -  °F | °C
As of 12:54 PM on Monday 20 Oct 2014 (Local Time) from KUIN Reporting Station
Clear Clear  
Wind Chill: 67°   Ceiling: Unl
Heat Index: 67°   Visibility: 10mi
Dew Point: 44°   Wind: 14mph
Humidity: 44%   Direction: 320°NW
Pressure: 29.98"   Gusts: 20mph
Location:  39.9716°N, 90.933°W
Report Text: KUIN 201754Z AUTO 32012G17KT 10SM CLR 19/07 A2998 RMK AO2 SLP151 T01940067 10194 20111 58002
Loading
Personal Weather Stations






























Interactive Weather Map
Tropical Storm Tracking
New forecast layout! Learn more

10-Day Weather Forecast

Advertisements
Track Severe Weather on mobile